sensor_id;sensor_type;location;lat;lon;timestamp;temperature;humidity
20370;DHT22;10344;47.592;9.600;2024-03-06T00:39:24;6.20;99.90
20370;DHT22;10344;47.592;9.600;2024-03-06T00:41:52;6.10;99.90
20370;DHT22;10344;47.592;9.600;2024-03-06T00:44:18;6.10;99.90
20370;DHT22;10344;47.592;9.600;2024-03-06T00:46:44;6.00;99.90
20370;DHT22;10344;47.592;9.600;2024-03-06T00:49:09;6.00;99.90
20370;DHT22;10344;47.592;9.600;2024-03-06T00:51:35;6.10;99.90
20370;DHT22;10344;47.592;9.600;2024-03-06T00:54:02;6.10;99.90
20370;DHT22;10344;47.592;9.600;2024-03-06T00:56:30;6.10;99.90
20370;DHT22;10344;47.592;9.600;2024-03-06T00:58:56;6.20;99.90
20370;DHT22;10344;47.592;9.600;2024-03-06T01:01:24;6.20;99.90
20370;DHT22;10344;47.592;9.600;2024-03-06T01:03:52;6.30;99.90
20370;DHT22;10344;47.592;9.600;2024-03-06T01:06:17;6.30;99.90
20370;DHT22;10344;47.592;9.600;2024-03-06T01:08:43;6.30;99.90
20370;DHT22;10344;47.592;9.600;2024-03-06T01:11:09;6.30;99.90
20370;DHT22;10344;47.592;9.600;2024-03-06T01:13:40;6.20;99.90
20370;DHT22;10344;47.592;9.600;2024-03-06T01:16:06;6.20;99.90
20370;DHT22;10344;47.592;9.600;2024-03-06T01:18:34;6.20;99.90
20370;DHT22;10344;47.592;9.600;2024-03-06T01:20:59;6.30;99.90
20370;DHT22;10344;47.592;9.600;2024-03-06T01:23:25;6.30;99.90
20370;DHT22;10344;47.592;9.600;2024-03-06T01:25:51;6.30;99.90
20370;DHT22;10344;47.592;9.600;2024-03-06T01:28:16;6.30;99.90
20370;DHT22;10344;47.592;9.600;2024-03-06T01:30:43;6.30;99.90
20370;DHT22;10344;47.592;9.600;2024-03-06T01:33:08;6.20;99.90
20370;DHT22;10344;47.592;9.600;2024-03-06T01:35:35;6.10;99.90
20370;DHT22;10344;47.592;9.600;2024-03-06T01:38:01;6.00;99.90
20370;DHT22;10344;47.592;9.600;2024-03-06T01:40:26;6.00;99.90
20370;DHT22;10344;47.592;9.600;2024-03-06T01:42:54;5.80;99.90
20370;DHT22;10344;47.592;9.600;2024-03-06T01:45:19;5.60;99.90
20370;DHT22;10344;47.592;9.600;2024-03-06T01:47:45;5.50;99.90
20370;DHT22;10344;47.592;9.600;2024-03-06T01:50:12;5.50;99.90
20370;DHT22;10344;47.592;9.600;2024-03-06T01:52:39;5.50;99.90
20370;DHT22;10344;47.592;9.600;2024-03-06T01:55:08;5.40;99.90
20370;DHT22;10344;47.592;9.600;2024-03-06T01:57:38;5.40;99.90
20370;DHT22;10344;47.592;9.600;2024-03-06T02:00:06;5.40;99.90
20370;DHT22;10344;47.592;9.600;2024-03-06T02:02:37;5.30;99.90
20370;DHT22;10344;47.592;9.600;2024-03-06T02:05:03;5.30;99.90
20370;DHT22;10344;47.592;9.600;2024-03-06T02:07:29;5.30;99.90
20370;DHT22;10344;47.592;9.600;2024-03-06T02:09:58;5.20;99.90
20370;DHT22;10344;47.592;9.600;2024-03-06T02:12:28;5.20;99.90
20370;DHT22;10344;47.592;9.600;2024-03-06T02:14:56;5.20;99.90
20370;DHT22;10344;47.592;9.600;2024-03-06T02:17:24;5.20;99.90
20370;DHT22;10344;47.592;9.600;2024-03-06T02:19:56;5.20;99.90
20370;DHT22;10344;47.592;9.600;2024-03-06T02:22:23;5.20;99.90
20370;DHT22;10344;47.592;9.600;2024-03-06T02:24:50;5.10;99.90
20370;DHT22;10344;47.592;9.600;2024-03-06T02:27:15;5.10;99.90
20370;DHT22;10344;47.592;9.600;2024-03-06T02:29:42;5.10;99.90
20370;DHT22;10344;47.592;9.600;2024-03-06T02:32:09;5.10;99.90
20370;DHT22;10344;47.592;9.600;2024-03-06T02:34:34;5.20;99.90
20370;DHT22;10344;47.592;9.600;2024-03-06T02:37:03;5.20;99.90
20370;DHT22;10344;47.592;9.600;2024-03-06T02:39:30;5.20;99.90
20370;DHT22;10344;47.592;9.600;2024-03-06T02:41:56;5.20;99.90
20370;DHT22;10344;47.592;9.600;2024-03-06T02:44:22;5.20;99.90
20370;DHT22;10344;47.592;9.600;2024-03-06T02:46:48;5.20;99.90
20370;DHT22;10344;47.592;9.600;2024-03-06T02:49:15;5.30;99.90
20370;DHT22;10344;47.592;9.600;2024-03-06T02:51:41;5.20;99.90
20370;DHT22;10344;47.592;9.600;2024-03-06T02:54:07;5.20;99.90
20370;DHT22;10344;47.592;9.600;2024-03-06T02:56:32;5.20;99.90
20370;DHT22;10344;47.592;9.600;2024-03-06T02:58:58;5.20;99.90
20370;DHT22;10344;47.592;9.600;2024-03-06T03:01:28;5.20;99.90
20370;DHT22;10344;47.592;9.600;2024-03-06T03:03:57;5.30;99.90
20370;DHT22;10344;47.592;9.600;2024-03-06T03:06:22;5.30;99.90
20370;DHT22;10344;47.592;9.600;2024-03-06T03:08:51;5.30;99.90
20370;DHT22;10344;47.592;9.600;2024-03-06T03:11:17;5.20;99.90
20370;DHT22;10344;47.592;9.600;2024-03-06T03:13:43;5.30;99.90
20370;DHT22;10344;47.592;9.600;2024-03-06T03:16:18;5.20;99.90
20370;DHT22;10344;47.592;9.600;2024-03-06T03:18:45;5.20;99.90
20370;DHT22;10344;47.592;9.600;2024-03-06T03:21:14;5.30;99.90
20370;DHT22;10344;47.592;9.600;2024-03-06T03:23:40;5.20;99.90
20370;DHT22;10344;47.592;9.600;2024-03-06T03:26:06;5.20;99.90
20370;DHT22;10344;47.592;9.600;2024-03-06T03:28:32;5.20;99.90
20370;DHT22;10344;47.592;9.600;2024-03-06T03:30:58;5.20;99.90
20370;DHT22;10344;47.592;9.600;2024-03-06T03:33:26;5.20;99.90
20370;DHT22;10344;47.592;9.600;2024-03-06T03:35:52;5.20;99.90
20370;DHT22;10344;47.592;9.600;2024-03-06T03:38:17;5.20;99.90
20370;DHT22;10344;47.592;9.600;2024-03-06T03:40:43;5.20;99.90
20370;DHT22;10344;47.592;9.600;2024-03-06T03:43:09;5.20;99.90
20370;DHT22;10344;47.592;9.600;2024-03-06T03:45:35;5.20;99.90
20370;DHT22;10344;47.592;9.600;2024-03-06T03:48:04;5.10;99.90
20370;DHT22;10344;47.592;9.600;2024-03-06T03:50:30;5.10;99.90
20370;DHT22;10344;47.592;9.600;2024-03-06T03:52:57;5.00;99.90
20370;DHT22;10344;47.592;9.600;2024-03-06T03:55:24;5.00;99.90
20370;DHT22;10344;47.592;9.600;2024-03-06T03:57:50;5.10;99.90
20370;DHT22;10344;47.592;9.600;2024-03-06T04:00:17;5.10;99.90
20370;DHT22;10344;47.592;9.600;2024-03-06T04:02:42;5.10;99.90
20370;DHT22;10344;47.592;9.600;2024-03-06T04:05:08;5.10;99.90
20370;DHT22;10344;47.592;9.600;2024-03-06T04:07:35;5.10;99.90
20370;DHT22;10344;47.592;9.600;2024-03-06T04:10:01;5.10;99.90
20370;DHT22;10344;47.592;9.600;2024-03-06T04:12:27;5.00;99.90
20370;DHT22;10344;47.592;9.600;2024-03-06T04:14:53;5.00;99.90
20370;DHT22;10344;47.592;9.600;2024-03-06T04:17:21;4.90;99.90
20370;DHT22;10344;47.592;9.600;2024-03-06T04:19:46;5.00;99.90
20370;DHT22;10344;47.592;9.600;2024-03-06T04:22:14;5.00;99.90
20370;DHT22;10344;47.592;9.600;2024-03-06T04:24:43;4.90;99.90
20370;DHT22;10344;47.592;9.600;2024-03-06T04:27:11;5.00;99.90
20370;DHT22;10344;47.592;9.600;2024-03-06T04:29:36;5.00;99.90
20370;DHT22;10344;47.592;9.600;2024-03-06T04:32:02;5.00;99.90
20370;DHT22;10344;47.592;9.600;2024-03-06T04:34:28;5.00;99.90
20370;DHT22;10344;47.592;9.600;2024-03-06T04:36:53;5.00;99.90
20370;DHT22;10344;47.592;9.600;2024-03-06T04:39:22;5.00;99.90
20370;DHT22;10344;47.592;9.600;2024-03-06T04:41:47;5.00;99.90
20370;DHT22;10344;47.592;9.600;2024-03-06T04:44:13;5.00;99.90
20370;DHT22;10344;47.592;9.600;2024-03-06T04:46:39;5.00;99.90
20370;DHT22;10344;47.592;9.600;2024-03-06T04:49:04;5.00;99.90
20370;DHT22;10344;47.592;9.600;2024-03-06T04:51:30;4.90;99.90
20370;DHT22;10344;47.592;9.600;2024-03-06T04:53:55;5.00;99.90
20370;DHT22;10344;47.592;9.600;2024-03-06T04:56:21;5.00;99.90
20370;DHT22;10344;47.592;9.600;2024-03-06T04:58:47;5.10;99.90
20370;DHT22;10344;47.592;9.600;2024-03-06T05:01:13;5.10;99.90
20370;DHT22;10344;47.592;9.600;2024-03-06T05:03:39;5.10;99.90
20370;DHT22;10344;47.592;9.600;2024-03-06T05:06:05;5.10;99.90
20370;DHT22;10344;47.592;9.600;2024-03-06T05:08:31;5.00;99.90
20370;DHT22;10344;47.592;9.600;2024-03-06T05:10:59;5.00;99.90
20370;DHT22;10344;47.592;9.600;2024-03-06T05:13:25;4.90;99.90
20370;DHT22;10344;47.592;9.600;2024-03-06T05:15:51;4.90;99.90
20370;DHT22;10344;47.592;9.600;2024-03-06T05:18:17;4.90;99.90
20370;DHT22;10344;47.592;9.600;2024-03-06T05:20:43;4.80;99.90
20370;DHT22;10344;47.592;9.600;2024-03-06T05:23:14;4.80;99.90
20370;DHT22;10344;47.592;9.600;2024-03-06T05:25:42;4.70;99.90
20370;DHT22;10344;47.592;9.600;2024-03-06T05:28:08;4.80;99.90
20370;DHT22;10344;47.592;9.600;2024-03-06T05:30:33;4.70;99.90
20370;DHT22;10344;47.592;9.600;2024-03-06T05:32:59;4.70;99.90
20370;DHT22;10344;47.592;9.600;2024-03-06T05:35:25;4.70;99.90
20370;DHT22;10344;47.592;9.600;2024-03-06T05:37:50;4.80;99.90
20370;DHT22;10344;47.592;9.600;2024-03-06T05:40:18;4.80;99.90
20370;DHT22;10344;47.592;9.600;2024-03-06T05:42:46;4.90;99.90
20370;DHT22;10344;47.592;9.600;2024-03-06T05:45:12;5.00;99.90
20370;DHT22;10344;47.592;9.600;2024-03-06T05:47:39;4.90;99.90
20370;DHT22;10344;47.592;9.600;2024-03-06T05:50:06;4.90;99.90
20370;DHT22;10344;47.592;9.600;2024-03-06T05:52:32;4.90;99.90
20370;DHT22;10344;47.592;9.600;2024-03-06T05:54:58;5.00;99.90
20370;DHT22;10344;47.592;9.600;2024-03-06T05:57:24;5.00;99.90
20370;DHT22;10344;47.592;9.600;2024-03-06T05:59:50;4.90;99.90
20370;DHT22;10344;47.592;9.600;2024-03-06T06:02:18;4.90;99.90
20370;DHT22;10344;47.592;9.600;2024-03-06T06:04:47;4.90;99.90
20370;DHT22;10344;47.592;9.600;2024-03-06T06:07:15;5.10;99.90
20370;DHT22;10344;47.592;9.600;2024-03-06T06:09:41;5.10;99.90
20370;DHT22;10344;47.592;9.600;2024-03-06T06:12:07;5.20;99.90
20370;DHT22;10344;47.592;9.600;2024-03-06T06:14:32;5.20;99.90
20370;DHT22;10344;47.592;9.600;2024-03-06T06:16:58;5.20;99.90
20370;DHT22;10344;47.592;9.600;2024-03-06T06:19:23;5.20;99.90
20370;DHT22;10344;47.592;9.600;2024-03-06T06:21:54;5.20;99.90
20370;DHT22;10344;47.592;9.600;2024-03-06T06:24:20;5.20;99.90
20370;DHT22;10344;47.592;9.600;2024-03-06T06:26:46;5.20;99.90
20370;DHT22;10344;47.592;9.600;2024-03-06T06:29:11;5.30;99.90
20370;DHT22;10344;47.592;9.600;2024-03-06T06:31:37;5.20;99.90
20370;DHT22;10344;47.592;9.600;2024-03-06T06:34:02;5.20;99.90
20370;DHT22;10344;47.592;9.600;2024-03-06T06:36:28;5.30;99.90
20370;DHT22;10344;47.592;9.600;2024-03-06T06:38:55;5.30;99.90
20370;DHT22;10344;47.592;9.600;2024-03-06T06:41:20;5.20;99.90
20370;DHT22;10344;47.592;9.600;2024-03-06T06:43:46;5.20;99.90
20370;DHT22;10344;47.592;9.600;2024-03-06T06:46:12;5.20;99.90
20370;DHT22;10344;47.592;9.600;2024-03-06T06:48:37;5.20;99.90
20370;DHT22;10344;47.592;9.600;2024-03-06T06:51:03;5.30;99.90
20370;DHT22;10344;47.592;9.600;2024-03-06T06:53:31;5.20;99.90
20370;DHT22;10344;47.592;9.600;2024-03-06T06:55:59;5.20;99.90
20370;DHT22;10344;47.592;9.600;2024-03-06T06:58:25;5.20;99.90
20370;DHT22;10344;47.592;9.600;2024-03-06T07:00:52;5.20;99.90
20370;DHT22;10344;47.592;9.600;2024-03-06T07:03:18;5.20;99.90
20370;DHT22;10344;47.592;9.600;2024-03-06T07:05:44;5.20;99.90
20370;DHT22;10344;47.592;9.600;2024-03-06T07:08:09;5.20;99.90
20370;DHT22;10344;47.592;9.600;2024-03-06T07:10:37;5.10;99.90
20370;DHT22;10344;47.592;9.600;2024-03-06T07:13:03;5.20;99.90
20370;DHT22;10344;47.592;9.600;2024-03-06T07:15:30;5.20;99.90
20370;DHT22;10344;47.592;9.600;2024-03-06T07:17:55;5.30;99.90
20370;DHT22;10344;47.592;9.600;2024-03-06T07:20:21;5.30;99.90
20370;DHT22;10344;47.592;9.600;2024-03-06T07:22:47;5.30;99.90
20370;DHT22;10344;47.592;9.600;2024-03-06T07:25:12;5.30;99.90
20370;DHT22;10344;47.592;9.600;2024-03-06T07:27:40;5.40;99.90
20370;DHT22;10344;47.592;9.600;2024-03-06T07:30:06;5.40;99.90
20370;DHT22;10344;47.592;9.600;2024-03-06T07:32:32;5.40;99.90
20370;DHT22;10344;47.592;9.600;2024-03-06T07:35:00;5.40;99.90
20370;DHT22;10344;47.592;9.600;2024-03-06T07:37:26;5.40;99.90
20370;DHT22;10344;47.592;9.600;2024-03-06T07:39:51;5.40;99.90
20370;DHT22;10344;47.592;9.600;2024-03-06T07:42:17;5.40;99.90
20370;DHT22;10344;47.592;9.600;2024-03-06T07:44:43;5.40;99.90
20370;DHT22;10344;47.592;9.600;2024-03-06T07:47:09;5.40;99.90
20370;DHT22;10344;47.592;9.600;2024-03-06T07:49:37;5.40;99.90
20370;DHT22;10344;47.592;9.600;2024-03-06T07:52:03;5.40;99.90
20370;DHT22;10344;47.592;9.600;2024-03-06T07:54:28;5.40;99.90
20370;DHT22;10344;47.592;9.600;2024-03-06T07:56:54;5.40;99.90
20370;DHT22;10344;47.592;9.600;2024-03-06T07:59:20;5.50;99.90
20370;DHT22;10344;47.592;9.600;2024-03-06T08:01:45;5.40;99.90
20370;DHT22;10344;47.592;9.600;2024-03-06T08:04:11;5.40;99.90
20370;DHT22;10344;47.592;9.600;2024-03-06T08:06:39;5.40;99.90
20370;DHT22;10344;47.592;9.600;2024-03-06T08:09:05;5.40;99.90
20370;DHT22;10344;47.592;9.600;2024-03-06T08:11:32;5.50;99.90
20370;DHT22;10344;47.592;9.600;2024-03-06T08:13:59;5.50;99.90
20370;DHT22;10344;47.592;9.600;2024-03-06T08:16:27;5.60;99.90
20370;DHT22;10344;47.592;9.600;2024-03-06T08:18:54;5.60;99.90
20370;DHT22;10344;47.592;9.600;2024-03-06T08:21:20;5.60;99.90
20370;DHT22;10344;47.592;9.600;2024-03-06T08:23:46;5.60;99.90
20370;DHT22;10344;47.592;9.600;2024-03-06T08:26:15;5.60;99.90
20370;DHT22;10344;47.592;9.600;2024-03-06T08:28:40;5.70;99.90
20370;DHT22;10344;47.592;9.600;2024-03-06T08:31:06;5.70;99.90
20370;DHT22;10344;47.592;9.600;2024-03-06T08:33:31;5.60;99.90
20370;DHT22;10344;47.592;9.600;2024-03-06T08:35:57;5.60;99.90
20370;DHT22;10344;47.592;9.600;2024-03-06T08:38:25;5.60;99.90
20370;DHT22;10344;47.592;9.600;2024-03-06T08:40:51;5.60;99.90
20370;DHT22;10344;47.592;9.600;2024-03-06T08:43:17;5.60;99.90
20370;DHT22;10344;47.592;9.600;2024-03-06T08:45:45;5.60;99.90
20370;DHT22;10344;47.592;9.600;2024-03-06T08:48:10;5.70;99.90
20370;DHT22;10344;47.592;9.600;2024-03-06T08:50:37;5.60;99.90
20370;DHT22;10344;47.592;9.600;2024-03-06T08:53:02;5.60;99.90
20370;DHT22;10344;47.592;9.600;2024-03-06T08:55:28;5.70;99.90
20370;DHT22;10344;47.592;9.600;2024-03-06T08:57:56;5.80;99.90
20370;DHT22;10344;47.592;9.600;2024-03-06T09:00:26;5.80;99.90
20370;DHT22;10344;47.592;9.600;2024-03-06T09:02:52;5.80;99.90
20370;DHT22;10344;47.592;9.600;2024-03-06T09:05:19;5.80;99.90
20370;DHT22;10344;47.592;9.600;2024-03-06T09:07:47;5.80;99.90
20370;DHT22;10344;47.592;9.600;2024-03-06T09:10:13;5.80;99.90
20370;DHT22;10344;47.592;9.600;2024-03-06T09:12:39;5.90;99.90
20370;DHT22;10344;47.592;9.600;2024-03-06T09:15:05;5.90;99.90
20370;DHT22;10344;47.592;9.600;2024-03-06T09:17:35;6.00;99.90
20370;DHT22;10344;47.592;9.600;2024-03-06T09:20:01;6.00;99.90
20370;DHT22;10344;47.592;9.600;2024-03-06T09:22:41;6.10;99.90
20370;DHT22;10344;47.592;9.600;2024-03-06T09:25:08;6.10;99.90
20370;DHT22;10344;47.592;9.600;2024-03-06T09:27:34;6.10;99.90
20370;DHT22;10344;47.592;9.600;2024-03-06T09:29:59;6.10;99.90
20370;DHT22;10344;47.592;9.600;2024-03-06T09:32:25;6.20;99.90
20370;DHT22;10344;47.592;9.600;2024-03-06T09:34:52;6.20;99.90
20370;DHT22;10344;47.592;9.600;2024-03-06T09:37:18;6.20;99.90
20370;DHT22;10344;47.592;9.600;2024-03-06T09:39:44;6.20;99.90
20370;DHT22;10344;47.592;9.600;2024-03-06T09:42:15;6.30;99.90
20370;DHT22;10344;47.592;9.600;2024-03-06T09:44:44;6.30;99.90
20370;DHT22;10344;47.592;9.600;2024-03-06T09:47:13;6.30;99.90
20370;DHT22;10344;47.592;9.600;2024-03-06T09:49:40;6.30;99.90
20370;DHT22;10344;47.592;9.600;2024-03-06T09:52:06;6.30;99.90
20370;DHT22;10344;47.592;9.600;2024-03-06T09:54:31;6.40;99.90
20370;DHT22;10344;47.592;9.600;2024-03-06T09:56:57;6.30;99.90
20370;DHT22;10344;47.592;9.600;2024-03-06T09:59:24;6.30;99.90
20370;DHT22;10344;47.592;9.600;2024-03-06T10:01:54;6.30;99.90
20370;DHT22;10344;47.592;9.600;2024-03-06T10:06:49;6.10;99.90
20370;DHT22;10344;47.592;9.600;2024-03-06T10:09:18;6.00;99.90
20370;DHT22;10344;47.592;9.600;2024-03-06T10:11:45;6.10;99.90
20370;DHT22;10344;47.592;9.600;2024-03-06T10:14:14;6.10;99.90
20370;DHT22;10344;47.592;9.600;2024-03-06T10:16:55;6.10;99.90
20370;DHT22;10344;47.592;9.600;2024-03-06T10:19:25;6.00;99.90
20370;DHT22;10344;47.592;9.600;2024-03-06T10:21:53;6.00;99.90
20370;DHT22;10344;47.592;9.600;2024-03-06T10:24:23;6.10;99.90
20370;DHT22;10344;47.592;9.600;2024-03-06T10:26:50;6.10;99.90
20370;DHT22;10344;47.592;9.600;2024-03-06T10:29:17;6.00;99.90
20370;DHT22;10344;47.592;9.600;2024-03-06T10:34:18;6.00;99.90
20370;DHT22;10344;47.592;9.600;2024-03-06T10:36:45;6.00;99.90
20370;DHT22;10344;47.592;9.600;2024-03-06T10:39:13;6.00;99.90
20370;DHT22;10344;47.592;9.600;2024-03-06T10:41:40;6.00;99.90
20370;DHT22;10344;47.592;9.600;2024-03-06T10:44:11;6.10;99.90
20370;DHT22;10344;47.592;9.600;2024-03-06T10:46:41;6.20;99.90
20370;DHT22;10344;47.592;9.600;2024-03-06T10:49:09;6.20;99.90
20370;DHT22;10344;47.592;9.600;2024-03-06T10:51:39;6.20;99.90
20370;DHT22;10344;47.592;9.600;2024-03-06T10:54:08;6.20;99.90
20370;DHT22;10344;47.592;9.600;2024-03-06T10:56:34;6.20;99.90
20370;DHT22;10344;47.592;9.600;2024-03-06T10:59:00;6.10;99.90
20370;DHT22;10344;47.592;9.600;2024-03-06T11:01:29;6.10;99.90
20370;DHT22;10344;47.592;9.600;2024-03-06T11:04:00;6.10;99.90
20370;DHT22;10344;47.592;9.600;2024-03-06T11:06:26;6.00;99.90
20370;DHT22;10344;47.592;9.600;2024-03-06T11:08:52;6.00;99.90
20370;DHT22;10344;47.592;9.600;2024-03-06T11:11:22;6.00;99.90
20370;DHT22;10344;47.592;9.600;2024-03-06T11:13:48;6.00;99.90
20370;DHT22;10344;47.592;9.600;2024-03-06T11:16:14;6.00;99.90
20370;DHT22;10344;47.592;9.600;2024-03-06T11:18:40;6.00;99.90
20370;DHT22;10344;47.592;9.600;2024-03-06T11:23:34;6.00;99.90
20370;DHT22;10344;47.592;9.600;2024-03-06T11:26:03;6.00;99.90
20370;DHT22;10344;47.592;9.600;2024-03-06T11:28:33;6.00;99.90
20370;DHT22;10344;47.592;9.600;2024-03-06T11:31:10;6.00;99.90
20370;DHT22;10344;47.592;9.600;2024-03-06T11:33:43;6.10;99.90
20370;DHT22;10344;47.592;9.600;2024-03-06T11:36:28;6.00;99.90
20370;DHT22;10344;47.592;9.600;2024-03-06T11:39:07;6.00;99.90
20370;DHT22;10344;47.592;9.600;2024-03-06T11:41:47;6.00;99.90
20370;DHT22;10344;47.592;9.600;2024-03-06T11:44:16;6.00;99.90
20370;DHT22;10344;47.592;9.600;2024-03-06T11:46:49;6.00;99.90
20370;DHT22;10344;47.592;9.600;2024-03-06T11:51:46;5.90;99.90
20370;DHT22;10344;47.592;9.600;2024-03-06T11:54:15;5.90;99.90
20370;DHT22;10344;47.592;9.600;2024-03-06T11:56:45;5.90;99.90
20370;DHT22;10344;47.592;9.600;2024-03-06T11:59:15;5.90;99.90
20370;DHT22;10344;47.592;9.600;2024-03-06T12:01:41;5.80;99.90
20370;DHT22;10344;47.592;9.600;2024-03-06T12:04:07;5.90;99.90
20370;DHT22;10344;47.592;9.600;2024-03-06T12:06:33;5.90;99.90
20370;DHT22;10344;47.592;9.600;2024-03-06T12:09:02;5.90;99.90
20370;DHT22;10344;47.592;9.600;2024-03-06T12:11:27;5.90;99.90
20370;DHT22;10344;47.592;9.600;2024-03-06T12:13:54;5.90;99.90
20370;DHT22;10344;47.592;9.600;2024-03-06T12:16:23;5.90;99.90
20370;DHT22;10344;47.592;9.600;2024-03-06T12:18:59;5.80;99.90
20370;DHT22;10344;47.592;9.600;2024-03-06T12:21:31;5.80;99.90
20370;DHT22;10344;47.592;9.600;2024-03-06T12:24:04;5.80;99.90
20370;DHT22;10344;47.592;9.600;2024-03-06T12:26:30;5.80;99.90
20370;DHT22;10344;47.592;9.600;2024-03-06T12:29:06;5.90;99.90
20370;DHT22;10344;47.592;9.600;2024-03-06T12:31:32;5.90;99.90
20370;DHT22;10344;47.592;9.600;2024-03-06T12:34:01;6.00;99.90
20370;DHT22;10344;47.592;9.600;2024-03-06T12:36:33;6.10;99.90
20370;DHT22;10344;47.592;9.600;2024-03-06T12:39:01;6.10;99.90
20370;DHT22;10344;47.592;9.600;2024-03-06T12:41:29;6.20;99.90
20370;DHT22;10344;47.592;9.600;2024-03-06T12:43:55;6.20;99.90
20370;DHT22;10344;47.592;9.600;2024-03-06T12:46:24;6.20;99.90
20370;DHT22;10344;47.592;9.600;2024-03-06T12:48:52;6.20;99.90
20370;DHT22;10344;47.592;9.600;2024-03-06T12:51:20;6.20;99.90
20370;DHT22;10344;47.592;9.600;2024-03-06T12:53:45;6.20;99.90
20370;DHT22;10344;47.592;9.600;2024-03-06T12:56:11;6.20;99.90
20370;DHT22;10344;47.592;9.600;2024-03-06T12:58:36;6.20;99.90
20370;DHT22;10344;47.592;9.600;2024-03-06T13:01:04;6.20;99.90
20370;DHT22;10344;47.592;9.600;2024-03-06T13:03:31;6.20;99.90
20370;DHT22;10344;47.592;9.600;2024-03-06T13:05:57;6.10;99.90
20370;DHT22;10344;47.592;9.600;2024-03-06T13:08:23;6.10;99.90
20370;DHT22;10344;47.592;9.600;2024-03-06T13:10:51;6.10;99.90
20370;DHT22;10344;47.592;9.600;2024-03-06T13:13:17;6.00;99.90
20370;DHT22;10344;47.592;9.600;2024-03-06T13:15:42;6.00;99.90
20370;DHT22;10344;47.592;9.600;2024-03-06T13:18:09;6.00;99.90
20370;DHT22;10344;47.592;9.600;2024-03-06T13:20:34;6.00;99.90
20370;DHT22;10344;47.592;9.600;2024-03-06T13:23:00;6.00;99.90
20370;DHT22;10344;47.592;9.600;2024-03-06T13:25:26;6.00;99.90
20370;DHT22;10344;47.592;9.600;2024-03-06T13:27:54;6.00;99.90
20370;DHT22;10344;47.592;9.600;2024-03-06T13:30:20;6.00;99.90
20370;DHT22;10344;47.592;9.600;2024-03-06T13:32:46;6.10;99.90
20370;DHT22;10344;47.592;9.600;2024-03-06T13:35:12;6.00;99.90
20370;DHT22;10344;47.592;9.600;2024-03-06T13:37:42;6.00;99.90
20370;DHT22;10344;47.592;9.600;2024-03-06T13:40:08;6.00;99.90
20370;DHT22;10344;47.592;9.600;2024-03-06T13:42:36;6.00;99.90
20370;DHT22;10344;47.592;9.600;2024-03-06T13:45:03;6.00;99.90
20370;DHT22;10344;47.592;9.600;2024-03-06T13:47:29;6.00;99.90
20370;DHT22;10344;47.592;9.600;2024-03-06T13:49:55;6.00;99.90
20370;DHT22;10344;47.592;9.600;2024-03-06T13:52:23;6.00;99.90
20370;DHT22;10344;47.592;9.600;2024-03-06T13:54:51;6.00;99.90
20370;DHT22;10344;47.592;9.600;2024-03-06T13:57:16;6.00;99.90
20370;DHT22;10344;47.592;9.600;2024-03-06T13:59:44;6.00;99.90
20370;DHT22;10344;47.592;9.600;2024-03-06T14:02:10;6.00;99.90
20370;DHT22;10344;47.592;9.600;2024-03-06T14:04:36;6.00;99.90
20370;DHT22;10344;47.592;9.600;2024-03-06T14:07:01;6.00;99.90
20370;DHT22;10344;47.592;9.600;2024-03-06T14:09:27;5.90;99.90
20370;DHT22;10344;47.592;9.600;2024-03-06T14:11:54;5.90;99.90
20370;DHT22;10344;47.592;9.600;2024-03-06T14:14:20;5.90;99.90
20370;DHT22;10344;47.592;9.600;2024-03-06T14:16:46;5.90;99.90
20370;DHT22;10344;47.592;9.600;2024-03-06T14:19:12;5.90;99.90
20370;DHT22;10344;47.592;9.600;2024-03-06T14:21:38;5.90;99.90
20370;DHT22;10344;47.592;9.600;2024-03-06T14:24:04;5.80;99.90
20370;DHT22;10344;47.592;9.600;2024-03-06T14:26:34;5.80;99.90
20370;DHT22;10344;47.592;9.600;2024-03-06T14:29:02;5.90;99.90
20370;DHT22;10344;47.592;9.600;2024-03-06T14:31:31;5.90;99.90
20370;DHT22;10344;47.592;9.600;2024-03-06T14:33:57;5.90;99.90
20370;DHT22;10344;47.592;9.600;2024-03-06T14:36:22;5.80;99.90
20370;DHT22;10344;47.592;9.600;2024-03-06T14:38:50;5.80;99.90
20370;DHT22;10344;47.592;9.600;2024-03-06T14:41:20;5.80;99.90
20370;DHT22;10344;47.592;9.600;2024-03-06T14:43:47;5.80;99.90
20370;DHT22;10344;47.592;9.600;2024-03-06T14:46:12;5.70;99.90
20370;DHT22;10344;47.592;9.600;2024-03-06T14:48:39;5.70;99.90
20370;DHT22;10344;47.592;9.600;2024-03-06T14:51:07;5.60;99.90
20370;DHT22;10344;47.592;9.600;2024-03-06T14:53:33;5.60;99.90
20370;DHT22;10344;47.592;9.600;2024-03-06T14:55:58;5.50;99.90
20370;DHT22;10344;47.592;9.600;2024-03-06T14:58:24;5.50;99.90
20370;DHT22;10344;47.592;9.600;2024-03-06T15:00:52;5.50;99.90
20370;DHT22;10344;47.592;9.600;2024-03-06T15:03:20;5.50;99.90
20370;DHT22;10344;47.592;9.600;2024-03-06T15:05:46;5.50;99.90
20370;DHT22;10344;47.592;9.600;2024-03-06T15:08:12;5.60;99.90
20370;DHT22;10344;47.592;9.600;2024-03-06T15:10:37;5.60;99.90
20370;DHT22;10344;47.592;9.600;2024-03-06T15:13:04;5.60;99.90
20370;DHT22;10344;47.592;9.600;2024-03-06T15:15:34;5.50;99.90
20370;DHT22;10344;47.592;9.600;2024-03-06T15:18:00;5.40;99.90
20370;DHT22;10344;47.592;9.600;2024-03-06T15:20:25;5.40;99.90
20370;DHT22;10344;47.592;9.600;2024-03-06T15:22:52;5.40;99.90
20370;DHT22;10344;47.592;9.600;2024-03-06T15:25:18;5.40;99.90
20370;DHT22;10344;47.592;9.600;2024-03-06T15:27:44;5.40;99.90
20370;DHT22;10344;47.592;9.600;2024-03-06T15:30:12;5.40;99.90
20370;DHT22;10344;47.592;9.600;2024-03-06T15:32:39;5.30;99.90
20370;DHT22;10344;47.592;9.600;2024-03-06T15:35:05;5.30;99.90
20370;DHT22;10344;47.592;9.600;2024-03-06T15:37:31;5.30;99.90
20370;DHT22;10344;47.592;9.600;2024-03-06T15:39:57;5.30;99.90
20370;DHT22;10344;47.592;9.600;2024-03-06T15:42:24;5.30;99.90
20370;DHT22;10344;47.592;9.600;2024-03-06T15:44:51;5.40;99.90
20370;DHT22;10344;47.592;9.600;2024-03-06T15:47:17;5.30;99.90
20370;DHT22;10344;47.592;9.600;2024-03-06T15:49:43;5.40;99.90
20370;DHT22;10344;47.592;9.600;2024-03-06T15:52:13;5.30;99.90
20370;DHT22;10344;47.592;9.600;2024-03-06T15:54:39;5.20;99.90
20370;DHT22;10344;47.592;9.600;2024-03-06T15:57:08;5.20;99.90
20370;DHT22;10344;47.592;9.600;2024-03-06T15:59:36;5.10;99.90
20370;DHT22;10344;47.592;9.600;2024-03-06T16:02:03;5.10;99.90
20370;DHT22;10344;47.592;9.600;2024-03-06T16:04:29;5.10;99.90
20370;DHT22;10344;47.592;9.600;2024-03-06T16:06:56;5.10;99.90
20370;DHT22;10344;47.592;9.600;2024-03-06T16:09:25;5.20;99.90
20370;DHT22;10344;47.592;9.600;2024-03-06T16:11:51;5.10;99.90
20370;DHT22;10344;47.592;9.600;2024-03-06T16:14:19;5.10;99.90
20370;DHT22;10344;47.592;9.600;2024-03-06T16:16:46;5.00;99.90
20370;DHT22;10344;47.592;9.600;2024-03-06T16:19:12;5.10;99.90
20370;DHT22;10344;47.592;9.600;2024-03-06T16:21:41;5.10;99.90
20370;DHT22;10344;47.592;9.600;2024-03-06T16:24:07;5.10;99.90
20370;DHT22;10344;47.592;9.600;2024-03-06T16:26:34;5.00;99.90
20370;DHT22;10344;47.592;9.600;2024-03-06T16:28:59;5.00;99.90
20370;DHT22;10344;47.592;9.600;2024-03-06T16:31:27;4.90;99.90